Time;durP1;ratioP1;P1;durP2;ratioP2;P2;SDS_P1;SDS_P2;PMS_P1;PMS_P2;Temp;Humidity;BMP_temperature;BMP_pressure;BME280_temperature;BME280_humidity;BME280_pressure;Samples;Min_cycle;Max_cycle;Signal;HPM_P1;HPM_P2
2023/12/13 00:04:49;;;;;;;8.10;5.30;;;;;;;;;;10358289;28;20216;-74
2023/12/13 00:09:49;;;;;;;4.60;3.70;;;;;;;;;;10358673;28;20592;-73
2023/12/13 00:14:49;;;;;;;7.33;5.03;;;;;;;;;;10356781;28;20541;-73
2023/12/13 00:19:49;;;;;;;7.10;4.83;;;;;;;;;;10358049;28;20192;-73
2023/12/13 00:24:50;;;;;;;6.20;4.70;;;;;;;;;;10357060;28;20291;-73
2023/12/13 00:29:50;;;;;;;7.20;4.70;;;;;;;;;;10356730;28;20181;-73
2023/12/13 00:34:50;;;;;;;4.43;3.17;;;;;;;;;;10357615;28;20601;-73
2023/12/13 00:39:51;;;;;;;8.83;5.33;;;;;;;;;;10356105;28;20194;-74
2023/12/13 00:44:51;;;;;;;5.50;4.83;;;;;;;;;;10356755;28;20221;-73
2023/12/13 00:49:52;;;;;;;5.10;3.60;;;;;;;;;;10357160;28;20196;-74
2023/12/13 00:54:52;;;;;;;6.37;4.67;;;;;;;;;;10355946;28;20455;-72
2023/12/13 00:59:52;;;;;;;8.53;4.37;;;;;;;;;;10355820;28;20669;-73
2023/12/13 01:04:53;;;;;;;5.27;3.60;;;;;;;;;;10355564;28;20221;-73
2023/12/13 01:09:53;;;;;;;5.23;3.97;;;;;;;;;;10356322;28;20284;-73
2023/12/13 01:14:53;;;;;;;4.00;2.70;;;;;;;;;;10355232;28;20182;-74
2023/12/13 01:19:54;;;;;;;7.03;4.40;;;;;;;;;;10354909;28;20185;-74
2023/12/13 01:24:54;;;;;;;6.80;3.90;;;;;;;;;;10354672;28;20263;-73
2023/12/13 01:29:54;;;;;;;4.93;3.47;;;;;;;;;;10355630;28;20189;-73
2023/12/13 01:34:54;;;;;;;4.00;3.37;;;;;;;;;;10354806;28;20185;-73
2023/12/13 01:39:56;;;;;;;4.87;3.13;;;;;;;;;;10354066;28;20539;-73
2023/12/13 01:44:56;;;;;;;6.00;4.17;;;;;;;;;;10353589;28;20218;-73
2023/12/13 01:49:57;;;;;;;7.57;4.37;;;;;;;;;;10355204;28;20185;-73
2023/12/13 01:54:57;;;;;;;5.03;3.87;;;;;;;;;;10355740;28;20223;-73
2023/12/13 01:59:57;;;;;;;4.07;2.90;;;;;;;;;;10353697;28;20188;-73
2023/12/13 02:04:59;;;;;;;7.63;3.57;;;;;;;;;;10357283;28;20332;-73
2023/12/13 02:10:00;;;;;;;4.10;3.13;;;;;;;;;;10362979;28;20185;-73
2023/12/13 02:15:00;;;;;;;6.13;3.80;;;;;;;;;;10361882;28;20747;-73
2023/12/13 02:20:01;;;;;;;5.67;3.90;;;;;;;;;;10363139;28;20259;-73
2023/12/13 02:25:03;;;;;;;5.63;3.27;;;;;;;;;;10361151;28;20244;-73
2023/12/13 02:30:04;;;;;;;4.70;3.20;;;;;;;;;;10361214;28;20198;-74
2023/12/13 02:35:05;;;;;;;6.50;3.80;;;;;;;;;;10361078;28;20193;-73
2023/12/13 02:40:06;;;;;;;5.47;3.70;;;;;;;;;;10361127;28;20192;-73
2023/12/13 02:45:08;;;;;;;4.33;3.57;;;;;;;;;;10360799;28;20218;-73
2023/12/13 02:50:10;;;;;;;5.10;3.67;;;;;;;;;;10360952;28;20194;-73
2023/12/13 02:55:10;;;;;;;4.27;3.27;;;;;;;;;;10359213;28;20307;-74
2023/12/13 03:00:11;;;;;;;3.53;2.60;;;;;;;;;;10360353;28;20683;-74
2023/12/13 03:05:11;;;;;;;4.77;3.17;;;;;;;;;;10360645;28;20502;-73
2023/12/13 03:10:11;;;;;;;3.40;2.83;;;;;;;;;;10360434;28;20983;-73
2023/12/13 03:15:12;;;;;;;3.40;2.77;;;;;;;;;;10358081;28;20282;-74
2023/12/13 03:20:12;;;;;;;3.77;3.00;;;;;;;;;;10360447;28;20232;-74
2023/12/13 03:25:12;;;;;;;3.73;2.83;;;;;;;;;;10358937;28;20488;-74
2023/12/13 03:30:12;;;;;;;4.47;3.10;;;;;;;;;;10359429;28;20538;-74
2023/12/13 03:35:13;;;;;;;3.07;2.43;;;;;;;;;;10358920;28;20193;-73
2023/12/13 03:40:13;;;;;;;3.97;3.00;;;;;;;;;;10358427;28;20284;-74
2023/12/13 03:45:13;;;;;;;3.10;2.77;;;;;;;;;;10374386;28;20492;-74
2023/12/13 03:50:14;;;;;;;3.30;2.60;;;;;;;;;;10357662;28;20189;-74
2023/12/13 03:55:14;;;;;;;3.77;2.87;;;;;;;;;;10359001;28;20202;-73
2023/12/13 04:00:15;;;;;;;3.33;2.77;;;;;;;;;;10358793;28;20268;-73
2023/12/13 04:05:15;;;;;;;3.80;3.17;;;;;;;;;;10357670;28;20221;-74
2023/12/13 04:10:17;;;;;;;2.90;2.40;;;;;;;;;;10357804;28;20655;-74
2023/12/13 04:15:17;;;;;;;3.10;2.60;;;;;;;;;;10357978;28;20255;-73
2023/12/13 04:20:17;;;;;;;2.67;2.43;;;;;;;;;;10357212;28;20671;-73
2023/12/13 04:25:17;;;;;;;3.30;2.77;;;;;;;;;;10356116;28;20842;-74
2023/12/13 04:30:18;;;;;;;22.00;12.00;;;;;;;;;;10355723;28;20189;-73
2023/12/13 04:35:18;;;;;;;5.10;4.27;;;;;;;;;;10355925;28;20220;-73
2023/12/13 04:40:18;;;;;;;2.50;2.30;;;;;;;;;;10356691;28;20663;-73
2023/12/13 04:45:19;;;;;;;2.67;2.27;;;;;;;;;;10355711;28;20216;-73
2023/12/13 04:50:19;;;;;;;2.23;1.70;;;;;;;;;;10354968;28;20440;-73
2023/12/13 04:55:19;;;;;;;4.07;1.83;;;;;;;;;;10355418;28;20185;-73
2023/12/13 05:00:19;;;;;;;1.60;1.50;;;;;;;;;;10353174;28;20621;-73
2023/12/13 05:05:20;;;;;;;1.70;1.43;;;;;;;;;;10342399;28;20217;-73
2023/12/13 05:10:20;;;;;;;1.80;1.70;;;;;;;;;;10346655;28;20442;-73
2023/12/13 05:15:20;;;;;;;1.83;1.73;;;;;;;;;;10346116;28;20668;-73
2023/12/13 05:20:20;;;;;;;1.70;1.60;;;;;;;;;;10346031;28;20194;-73
2023/12/13 05:25:21;;;;;;;3.33;1.63;;;;;;;;;;10345133;28;20244;-73
2023/12/13 05:30:23;;;;;;;2.20;2.00;;;;;;;;;;10346311;28;20224;-73
2023/12/13 05:35:23;;;;;;;2.83;2.00;;;;;;;;;;10347435;28;20229;-73
2023/12/13 05:40:23;;;;;;;2.60;2.03;;;;;;;;;;10344469;28;20288;-73
2023/12/13 05:45:24;;;;;;;2.23;2.03;;;;;;;;;;10345011;28;20265;-73
2023/12/13 05:50:24;;;;;;;3.03;2.10;;;;;;;;;;10345457;28;20221;-73
2023/12/13 05:55:24;;;;;;;2.30;1.93;;;;;;;;;;10344766;28;20195;-73
2023/12/13 06:00:24;;;;;;;2.27;1.77;;;;;;;;;;10345072;28;20953;-72
2023/12/13 06:05:25;;;;;;;1.80;1.70;;;;;;;;;;10344612;28;20229;-73
2023/12/13 06:10:25;;;;;;;2.23;1.83;;;;;;;;;;10346887;28;20224;-73
2023/12/13 06:15:25;;;;;;;2.40;2.17;;;;;;;;;;10344947;28;20316;-73
2023/12/13 06:20:26;;;;;;;2.30;2.10;;;;;;;;;;10345879;28;20299;-73
2023/12/13 06:25:26;;;;;;;2.67;2.10;;;;;;;;;;10341548;28;20361;-73
2023/12/13 06:30:26;;;;;;;1.97;1.73;;;;;;;;;;10306183;28;20568;-73
2023/12/13 06:35:26;;;;;;;3.60;2.47;;;;;;;;;;10306470;28;20202;-73
2023/12/13 06:40:27;;;;;;;3.03;2.60;;;;;;;;;;10302985;28;20206;-73
2023/12/13 06:45:28;;;;;;;5.60;3.10;;;;;;;;;;10303451;28;20217;-73
2023/12/13 06:50:28;;;;;;;3.50;2.60;;;;;;;;;;10306916;28;20190;-73
2023/12/13 06:55:28;;;;;;;7.13;4.70;;;;;;;;;;10311140;28;20197;-73
2023/12/13 07:00:29;;;;;;;5.50;4.20;;;;;;;;;;10312454;28;20256;-73
2023/12/13 07:05:29;;;;;;;3.13;2.87;;;;;;;;;;10310379;28;20247;-73
2023/12/13 07:10:29;;;;;;;4.40;3.17;;;;;;;;;;10311063;28;20190;-73
2023/12/13 07:15:30;;;;;;;5.73;3.03;;;;;;;;;;10310084;28;20803;-73
2023/12/13 07:20:34;;;;;;;6.43;4.38;;;;;;;;;;10310606;28;20194;-73
2023/12/13 07:25:34;;;;;;;6.10;4.13;;;;;;;;;;10305076;28;20234;-73
2023/12/13 07:30:34;;;;;;;4.20;3.13;;;;;;;;;;10338767;28;20190;-73
2023/12/13 07:35:34;;;;;;;4.70;3.00;;;;;;;;;;10349767;28;20193;-73
2023/12/13 07:40:35;;;;;;;4.37;3.17;;;;;;;;;;10349892;28;20193;-73
2023/12/13 07:45:35;;;;;;;5.03;3.17;;;;;;;;;;10350241;28;20228;-73
2023/12/13 07:50:35;;;;;;;5.17;2.27;;;;;;;;;;10349650;28;20199;-73
2023/12/13 07:55:35;;;;;;;10.40;6.73;;;;;;;;;;10350888;28;20201;-73
2023/12/13 08:00:35;;;;;;;10.50;5.80;;;;;;;;;;10338968;28;20539;-74
2023/12/13 08:05:36;;;;;;;41.83;21.73;;;;;;;;;;10347979;28;20290;-73
2023/12/13 08:10:36;;;;;;;13.50;7.97;;;;;;;;;;10348859;28;20448;-74
2023/12/13 08:15:36;;;;;;;5.87;4.10;;;;;;;;;;10348929;28;20199;-73
2023/12/13 08:20:36;;;;;;;6.50;3.30;;;;;;;;;;10348071;28;20201;-73
2023/12/13 08:25:38;;;;;;;21.00;9.70;;;;;;;;;;10344438;28;20462;-73
2023/12/13 08:30:38;;;;;;;7.97;3.23;;;;;;;;;;10349711;28;20222;-73
2023/12/13 08:35:38;;;;;;;5.47;2.80;;;;;;;;;;10349127;28;20190;-73
2023/12/13 08:40:39;;;;;;;3.97;2.50;;;;;;;;;;10349462;28;20281;-74
2023/12/13 08:45:39;;;;;;;4.43;2.07;;;;;;;;;;10348862;28;20700;-74
2023/12/13 08:50:40;;;;;;;6.87;2.80;;;;;;;;;;10347850;28;20185;-74
2023/12/13 08:55:40;;;;;;;3.67;2.50;;;;;;;;;;10322075;28;20612;-73
2023/12/13 09:00:40;;;;;;;5.20;2.10;;;;;;;;;;10321765;28;20204;-73
2023/12/13 09:05:40;;;;;;;4.10;2.30;;;;;;;;;;10330345;28;20251;-74
2023/12/13 09:10:41;;;;;;;6.67;4.43;;;;;;;;;;10346243;28;20437;-73
2023/12/13 09:15:42;;;;;;;5.97;2.80;;;;;;;;;;10344881;28;20186;-74
2023/12/13 09:20:43;;;;;;;4.83;2.60;;;;;;;;;;10335487;28;20328;-73
2023/12/13 09:25:43;;;;;;;4.20;2.90;;;;;;;;;;10348360;28;20225;-73
2023/12/13 09:30:44;;;;;;;6.37;2.63;;;;;;;;;;10346021;28;20666;-74
2023/12/13 09:35:44;;;;;;;5.57;2.33;;;;;;;;;;10343321;28;20182;-73
2023/12/13 09:40:44;;;;;;;8.67;3.87;;;;;;;;;;10345167;28;20198;-73
2023/12/13 09:45:45;;;;;;;10.90;5.80;;;;;;;;;;10346848;28;20190;-73
2023/12/13 09:50:46;;;;;;;7.50;2.70;;;;;;;;;;10344133;28;20194;-73
2023/12/13 09:55:47;;;;;;;7.07;2.93;;;;;;;;;;10345735;28;20206;-73
2023/12/13 10:00:47;;;;;;;5.00;2.07;;;;;;;;;;10335717;28;20198;-73
2023/12/13 10:05:48;;;;;;;5.37;2.30;;;;;;;;;;10339496;28;20186;-73
2023/12/13 10:10:48;;;;;;;7.47;2.33;;;;;;;;;;10332142;28;20237;-73
2023/12/13 10:15:48;;;;;;;7.47;2.57;;;;;;;;;;10342116;28;20189;-73
2023/12/13 10:20:49;;;;;;;8.27;3.40;;;;;;;;;;10342018;28;20666;-72
2023/12/13 10:25:49;;;;;;;5.20;2.53;;;;;;;;;;10346138;28;20222;-73
2023/12/13 10:30:49;;;;;;;7.70;2.53;;;;;;;;;;10351464;28;20229;-72
2023/12/13 10:35:52;;;;;;;3.33;2.00;;;;;;;;;;10349608;28;20536;-73
2023/12/13 10:40:52;;;;;;;5.90;2.10;;;;;;;;;;10350559;28;20189;-73
2023/12/13 10:45:59;;;;;;;6.37;2.50;;;;;;;;;;10352830;28;20204;-72
2023/12/13 10:50:59;;;;;;;5.20;2.10;;;;;;;;;;10352766;28;20268;-73
2023/12/13 10:56:00;;;;;;;7.57;2.23;;;;;;;;;;10352026;28;20223;-72
2023/12/13 11:01:01;;;;;;;7.13;2.20;;;;;;;;;;10352113;28;20192;-72
2023/12/13 11:06:04;;;;;;;5.23;1.80;;;;;;;;;;10348134;28;20241;-72
2023/12/13 11:11:05;;;;;;;5.10;2.27;;;;;;;;;;10344290;28;20272;-72
2023/12/13 11:16:12;;;;;;;3.97;1.97;;;;;;;;;;10349038;28;20557;-72
2023/12/13 11:21:24;;;;;;;2.80;1.87;;;;;;;;;;10354184;28;20355;-73
2023/12/13 11:26:28;;;;;;;3.47;1.97;;;;;;;;;;10344679;28;20233;-72
2023/12/13 11:31:28;;;;;;;4.43;2.03;;;;;;;;;;10343360;28;20191;-72
2023/12/13 11:36:29;;;;;;;5.33;2.50;;;;;;;;;;10338143;28;20236;-72
2023/12/13 11:41:29;;;;;;;1.70;1.53;;;;;;;;;;10338988;28;20214;-72
2023/12/13 11:46:30;;;;;;;6.27;1.53;;;;;;;;;;10340911;28;20198;-72
2023/12/13 11:51:31;;;;;;;5.40;2.60;;;;;;;;;;10333643;28;20235;-72
2023/12/13 11:56:31;;;;;;;13.07;3.60;;;;;;;;;;10346507;28;20251;-73
2023/12/13 12:01:31;;;;;;;4.13;1.70;;;;;;;;;;10347189;28;20610;-73
2023/12/13 12:06:32;;;;;;;4.80;1.67;;;;;;;;;;10345894;28;20197;-73
2023/12/13 12:11:32;;;;;;;3.55;1.23;;;;;;;;;;10346211;28;20815;-72
2023/12/13 12:16:32;;;;;;;5.07;1.57;;;;;;;;;;10338338;28;20498;-73
2023/12/13 12:21:35;;;;;;;2.83;1.63;;;;;;;;;;10338764;28;20225;-72
2023/12/13 12:27:00;;;;;;;4.40;1.83;;;;;;;;;;10342003;28;20229;-74
2023/12/13 12:32:00;;;;;;;3.23;1.90;;;;;;;;;;10343451;28;20567;-73
2023/12/13 12:37:02;;;;;;;3.50;1.90;;;;;;;;;;10344958;28;20201;-74
2023/12/13 12:42:03;;;;;;;6.00;1.90;;;;;;;;;;10340708;28;20343;-74
2023/12/13 12:47:03;;;;;;;3.93;1.50;;;;;;;;;;10325841;28;20185;-74
2023/12/13 12:52:04;;;;;;;3.92;1.50;;;;;;;;;;10329587;28;20196;-74
2023/12/13 12:57:04;;;;;;;6.13;1.70;;;;;;;;;;10330810;28;20682;-73
2023/12/13 13:02:04;;;;;;;3.13;1.63;;;;;;;;;;10345866;28;20212;-73
2023/12/13 13:07:05;;;;;;;4.07;1.83;;;;;;;;;;10347420;28;20185;-73
2023/12/13 13:12:06;;;;;;;2.60;1.60;;;;;;;;;;10346749;28;20535;-73
2023/12/13 13:17:06;;;;;;;4.13;2.10;;;;;;;;;;10341312;28;20204;-74
2023/12/13 13:22:06;;;;;;;1.77;1.30;;;;;;;;;;10345243;28;20691;-74
2023/12/13 13:27:06;;;;;;;2.80;1.67;;;;;;;;;;10346053;28;20316;-73
2023/12/13 13:32:06;;;;;;;2.80;1.67;;;;;;;;;;10348716;28;20193;-73
2023/12/13 13:37:07;;;;;;;3.17;1.77;;;;;;;;;;10350103;28;20205;-74
2023/12/13 13:42:09;;;;;;;6.23;1.90;;;;;;;;;;10348515;28;20225;-74
2023/12/13 13:47:09;;;;;;;3.50;1.73;;;;;;;;;;10352026;28;20651;-73
2023/12/13 13:52:09;;;;;;;4.73;2.00;;;;;;;;;;10348349;28;20320;-74
2023/12/13 13:57:10;;;;;;;5.37;1.70;;;;;;;;;;10341912;28;20193;-73
2023/12/13 14:02:17;;;;;;;6.07;2.00;;;;;;;;;;10347263;28;20367;-74
2023/12/13 14:07:18;;;;;;;4.00;1.77;;;;;;;;;;10347275;28;20190;-74
2023/12/13 14:12:18;;;;;;;7.27;2.20;;;;;;;;;;10347062;28;20729;-76
2023/12/13 14:17:18;;;;;;;2.87;1.73;;;;;;;;;;10348459;28;20204;-74
2023/12/13 14:22:19;;;;;;;5.30;2.10;;;;;;;;;;10344232;28;20571;-75
2023/12/13 14:27:19;;;;;;;3.40;1.93;;;;;;;;;;10336022;28;20237;-75
2023/12/13 14:32:20;;;;;;;9.20;5.80;;;;;;;;;;10345624;28;20690;-74
2023/12/13 14:37:20;;;;;;;4.67;3.03;;;;;;;;;;10347873;28;20209;-74
2023/12/13 14:42:20;;;;;;;12.33;5.50;;;;;;;;;;10344607;28;20771;-75
2023/12/13 14:47:21;;;;;;;18.93;13.03;;;;;;;;;;10344006;28;20268;-75
2023/12/13 14:52:21;;;;;;;6.80;4.40;;;;;;;;;;10343952;28;20276;-74
2023/12/13 14:57:22;;;;;;;8.53;4.70;;;;;;;;;;10341631;28;20189;-74
2023/12/13 15:02:22;;;;;;;6.70;3.53;;;;;;;;;;10342744;28;20209;-74
2023/12/13 15:07:22;;;;;;;6.50;3.80;;;;;;;;;;10340503;28;20186;-74
2023/12/13 15:12:22;;;;;;;8.60;5.07;;;;;;;;;;10343925;28;20272;-74
2023/12/13 15:17:22;;;;;;;7.67;3.20;;;;;;;;;;10348422;28;20186;-74
2023/12/13 15:22:23;;;;;;;7.07;2.93;;;;;;;;;;10347744;28;20217;-74
2023/12/13 15:27:25;;;;;;;5.90;2.93;;;;;;;;;;10347774;28;20266;-73
2023/12/13 15:32:25;;;;;;;8.87;3.00;;;;;;;;;;10339423;28;20216;-73
2023/12/13 15:37:25;;;;;;;5.10;3.10;;;;;;;;;;10331016;28;20193;-74
2023/12/13 15:42:26;;;;;;;6.20;3.67;;;;;;;;;;10332485;28;20594;-73
2023/12/13 15:47:26;;;;;;;5.30;3.03;;;;;;;;;;10332414;28;20194;-73
2023/12/13 15:52:26;;;;;;;6.40;3.20;;;;;;;;;;10339342;28;20274;-73
2023/12/13 15:57:26;;;;;;;13.80;7.97;;;;;;;;;;10348327;28;20524;-73
2023/12/13 16:02:27;;;;;;;161.67;69.60;;;;;;;;;;10346120;28;20771;-73
2023/12/13 16:07:27;;;;;;;15.95;7.45;;;;;;;;;;10326554;28;20186;-74
2023/12/13 16:12:28;;;;;;;22.30;11.13;;;;;;;;;;10337408;28;20197;-73
2023/12/13 16:17:30;;;;;;;9.40;5.13;;;;;;;;;;10333118;28;20190;-73
2023/12/13 16:22:31;;;;;;;6.00;3.80;;;;;;;;;;10334131;28;20225;-73
2023/12/13 16:27:31;;;;;;;9.87;4.30;;;;;;;;;;10327719;28;20253;-73
2023/12/13 16:32:31;;;;;;;8.60;5.07;;;;;;;;;;10333413;28;20206;-73
2023/12/13 16:37:33;;;;;;;10.37;5.07;;;;;;;;;;10319087;28;20193;-73
2023/12/13 16:42:33;;;;;;;8.17;4.33;;;;;;;;;;10313379;28;20220;-73
2023/12/13 16:47:36;;;;;;;5.63;3.40;;;;;;;;;;10320963;28;20200;-75
2023/12/13 16:52:36;;;;;;;5.93;3.70;;;;;;;;;;10323901;28;20185;-74
2023/12/13 16:57:37;;;;;;;9.00;4.50;;;;;;;;;;10306846;28;20209;-74
2023/12/13 17:02:37;;;;;;;7.23;4.70;;;;;;;;;;10304894;28;20277;-74
2023/12/13 17:07:37;;;;;;;8.00;4.50;;;;;;;;;;10309644;28;20606;-74
2023/12/13 17:12:37;;;;;;;7.43;3.87;;;;;;;;;;10307301;28;20213;-74
2023/12/13 17:17:38;;;;;;;16.30;4.07;;;;;;;;;;10311845;28;20442;-74
2023/12/13 17:22:39;;;;;;;8.23;4.03;;;;;;;;;;10308533;28;20214;-74
2023/12/13 17:27:39;;;;;;;6.67;4.20;;;;;;;;;;10324064;28;20221;-74
2023/12/13 17:32:39;;;;;;;7.30;3.87;;;;;;;;;;10347323;28;20201;-74
2023/12/13 17:37:40;;;;;;;4.03;2.90;;;;;;;;;;10346689;28;20717;-74
2023/12/13 17:42:41;;;;;;;5.07;3.57;;;;;;;;;;10348113;28;20350;-74
2023/12/13 17:47:41;;;;;;;8.67;4.57;;;;;;;;;;10340919;28;20190;-74
2023/12/13 17:52:41;;;;;;;10.37;4.20;;;;;;;;;;10347471;28;20190;-74
2023/12/13 17:57:42;;;;;;;7.00;4.23;;;;;;;;;;10347426;28;20186;-74
2023/12/13 18:02:43;;;;;;;8.20;4.37;;;;;;;;;;10342979;28;20222;-74
2023/12/13 18:07:43;;;;;;;7.63;4.40;;;;;;;;;;10347539;28;20229;-74
2023/12/13 18:12:43;;;;;;;6.27;3.53;;;;;;;;;;10339730;28;20801;-74
2023/12/13 18:17:43;;;;;;;7.30;4.00;;;;;;;;;;10337541;28;20190;-74
2023/12/13 18:22:44;;;;;;;4.03;3.10;;;;;;;;;;10344160;28;20219;-74
2023/12/13 18:33:22;;;;;;;4.70;3.47;;;;;;;;;;10339169;28;20197;-74
2023/12/13 18:38:23;;;;;;;6.27;4.43;;;;;;;;;;10345718;28;20267;-74
2023/12/13 18:43:23;;;;;;;6.47;3.97;;;;;;;;;;10346643;28;20264;-74
2023/12/13 18:48:23;;;;;;;6.63;4.13;;;;;;;;;;10356710;28;20608;-74
2023/12/13 18:53:24;;;;;;;7.27;5.20;;;;;;;;;;10364227;28;20235;-74
2023/12/13 18:58:27;;;;;;;7.67;6.83;;;;;;;;;;10349709;28;20723;-74
2023/12/13 19:03:28;;;;;;;5.23;4.07;;;;;;;;;;10347855;28;20223;-74
2023/12/13 19:08:28;;;;;;;7.10;3.63;;;;;;;;;;10350817;28;20199;-74
2023/12/13 19:13:28;;;;;;;4.60;3.40;;;;;;;;;;10350284;28;20197;-74
2023/12/13 19:18:29;;;;;;;7.53;5.10;;;;;;;;;;10350357;28;20201;-74
2023/12/13 19:23:29;;;;;;;8.83;4.07;;;;;;;;;;10353226;28;20223;-74
2023/12/13 19:28:29;;;;;;;4.87;3.50;;;;;;;;;;10355829;28;20252;-73
2023/12/13 19:33:29;;;;;;;11.47;7.77;;;;;;;;;;10349527;28;20627;-74
2023/12/13 19:38:30;;;;;;;9.13;4.63;;;;;;;;;;10347483;28;20193;-74
2023/12/13 19:43:30;;;;;;;7.77;3.87;;;;;;;;;;10344911;28;20217;-74
2023/12/13 19:48:31;;;;;;;9.23;4.20;;;;;;;;;;10345452;28;20672;-74
2023/12/13 19:53:31;;;;;;;5.07;4.13;;;;;;;;;;10349447;28;20561;-74
2023/12/13 19:58:31;;;;;;;8.37;3.70;;;;;;;;;;10339546;28;20202;-74
2023/12/13 20:03:31;;;;;;;6.70;3.50;;;;;;;;;;10348883;28;20217;-74
2023/12/13 20:08:31;;;;;;;7.20;3.67;;;;;;;;;;10348463;28;20946;-73
2023/12/13 20:13:32;;;;;;;8.60;3.43;;;;;;;;;;10347564;28;20456;-73
2023/12/13 20:18:33;;;;;;;7.67;4.67;;;;;;;;;;10348416;28;20204;-73
2023/12/13 20:23:33;;;;;;;5.07;3.33;;;;;;;;;;10342878;28;20287;-74
2023/12/13 20:28:33;;;;;;;8.47;5.63;;;;;;;;;;10347167;28;20236;-73
2023/12/13 20:33:34;;;;;;;3.20;2.77;;;;;;;;;;10359076;28;20284;-74
2023/12/13 20:38:34;;;;;;;7.40;4.72;;;;;;;;;;10332033;28;20455;-74
2023/12/13 20:43:34;;;;;;;5.40;3.73;;;;;;;;;;10348335;28;20216;-74
2023/12/13 20:48:34;;;;;;;5.50;2.60;;;;;;;;;;10347727;28;20186;-74
2023/12/13 20:53:35;;;;;;;4.63;2.80;;;;;;;;;;10347319;28;20193;-74
2023/12/13 20:58:37;;;;;;;6.07;2.93;;;;;;;;;;10335738;28;20186;-73
2023/12/13 21:03:38;;;;;;;4.20;3.30;;;;;;;;;;10330184;28;20484;-74
2023/12/13 21:08:38;;;;;;;5.40;3.27;;;;;;;;;;10335930;28;20644;-73
2023/12/13 21:13:38;;;;;;;6.97;2.73;;;;;;;;;;10339029;28;20202;-74
2023/12/13 21:18:38;;;;;;;5.53;2.57;;;;;;;;;;10346503;28;20194;-74
2023/12/13 21:23:39;;;;;;;3.60;2.60;;;;;;;;;;10345782;28;20485;-73
2023/12/13 21:28:39;;;;;;;8.67;3.33;;;;;;;;;;10345961;28;20340;-74
2023/12/13 21:33:39;;;;;;;5.97;3.87;;;;;;;;;;10345367;28;20216;-74
2023/12/13 21:38:39;;;;;;;4.73;2.23;;;;;;;;;;10345363;28;20440;-73
2023/12/13 21:43:40;;;;;;;5.33;2.60;;;;;;;;;;10347568;28;20313;-74
2023/12/13 21:48:40;;;;;;;8.40;2.73;;;;;;;;;;10346145;28;20190;-73
2023/12/13 21:53:43;;;;;;;7.63;2.33;;;;;;;;;;10345619;28;20198;-73
2023/12/13 21:58:43;;;;;;;5.73;2.50;;;;;;;;;;10338850;28;20281;-72
2023/12/13 22:03:44;;;;;;;2.93;2.50;;;;;;;;;;10348725;28;20684;-73
2023/12/13 22:08:44;;;;;;;5.73;2.83;;;;;;;;;;10345142;28;20197;-73
2023/12/13 22:13:45;;;;;;;6.07;2.30;;;;;;;;;;10345754;28;20456;-73
2023/12/13 22:19:09;;;;;;;3.10;2.00;;;;;;;;;;10342235;28;20575;-72
2023/12/13 22:24:09;;;;;;;7.97;2.23;;;;;;;;;;10352204;28;20280;-72
2023/12/13 22:29:10;;;;;;;4.00;1.90;;;;;;;;;;10352822;28;20336;-72
2023/12/13 22:34:13;;;;;;;4.37;2.50;;;;;;;;;;10353039;28;20626;-72
2023/12/13 22:39:13;;;;;;;2.40;2.20;;;;;;;;;;10353463;28;20192;-73
2023/12/13 22:44:13;;;;;;;3.50;1.90;;;;;;;;;;10353796;28;20280;-73
2023/12/13 22:49:15;;;;;;;3.20;2.00;;;;;;;;;;10351337;28;20554;-73
2023/12/13 22:54:15;;;;;;;4.80;2.30;;;;;;;;;;10351958;28;20220;-73
2023/12/13 22:59:16;;;;;;;3.37;2.20;;;;;;;;;;10352502;28;20296;-73
2023/12/13 23:04:16;;;;;;;2.60;2.10;;;;;;;;;;10347446;28;20225;-73
2023/12/13 23:09:17;;;;;;;2.33;1.97;;;;;;;;;;10352854;28;20181;-73
2023/12/13 23:14:17;;;;;;;4.20;2.33;;;;;;;;;;10351865;28;20194;-73
2023/12/13 23:19:17;;;;;;;3.27;2.20;;;;;;;;;;10354391;28;20204;-73
2023/12/13 23:24:18;;;;;;;2.43;2.03;;;;;;;;;;10351542;28;20253;-73
2023/12/13 23:29:18;;;;;;;4.57;2.10;;;;;;;;;;10334789;28;20237;-73
2023/12/13 23:34:18;;;;;;;2.80;2.20;;;;;;;;;;10351719;28;20243;-73
2023/12/13 23:39:19;;;;;;;1.97;1.73;;;;;;;;;;10351291;28;20219;-73
2023/12/13 23:44:19;;;;;;;3.93;1.90;;;;;;;;;;10351439;28;20221;-73
2023/12/13 23:49:19;;;;;;;2.20;2.00;;;;;;;;;;10350798;28;20185;-73
2023/12/13 23:54:20;;;;;;;4.30;2.30;;;;;;;;;;10350964;28;20550;-73
2023/12/13 23:59:20;;;;;;;2.83;2.27;;;;;;;;;;10350771;28;20201;-73
